San Diego, California
Traffic Map
Current Weather Conditions
San Diego, California
Clear
Clear
22°
Feels Like: 22°
Wind Chill: 22° Ceiling: Unl
Heat Index: 22° Visibility: 10mi
Dew Point: 10° Wind: 3mph
Humidity: 46% Direction: ° ()
Pressure: 29.9in Gusts: 0mph
Raw Report DataKSAN 260951Z VRB03KT 10SM CLR 22/10 A2990 RMK AO2 SLP125 T02220100 $
Traffic Incident Summary
Active as of:
Severity:
Category:
InformationThere was an issue retrieving the traffic information for this location. Please try a different location or try again shortly.
Advertisements
Track Severe Weather on mobile